sensor_id;sensor_type;location;lat;lon;timestamp;pressure;altitude;pressure_sealevel;temperature;humidity
60920;BME280;59039;52.108;19.942;2022-07-29T00:01:49;101121.02;;;16.65;60.58
60920;BME280;59039;52.108;19.942;2022-07-29T00:04:14;101120.55;;;16.60;60.66
60920;BME280;59039;52.108;19.942;2022-07-29T00:06:40;101116.94;;;16.54;61.77
60920;BME280;59039;52.108;19.942;2022-07-29T00:09:06;101124.57;;;16.46;61.87
60920;BME280;59039;52.108;19.942;2022-07-29T00:11:32;101124.19;;;16.38;61.25
60920;BME280;59039;52.108;19.942;2022-07-29T00:13:58;101119.98;;;16.33;61.96
60920;BME280;59039;52.108;19.942;2022-07-29T00:16:26;101124.42;;;16.25;62.70
60920;BME280;59039;52.108;19.942;2022-07-29T00:18:51;101121.70;;;16.15;62.59
60920;BME280;59039;52.108;19.942;2022-07-29T00:21:19;101124.56;;;16.11;62.48
60920;BME280;59039;52.108;19.942;2022-07-29T00:23:44;101126.41;;;16.06;63.03
60920;BME280;59039;52.108;19.942;2022-07-29T00:26:09;101126.24;;;16.01;63.45
60920;BME280;59039;52.108;19.942;2022-07-29T00:28:35;101128.79;;;15.96;62.40
60920;BME280;59039;52.108;19.942;2022-07-29T00:31:03;101134.54;;;15.94;63.26
60920;BME280;59039;52.108;19.942;2022-07-29T00:33:31;101136.63;;;15.91;62.87
60920;BME280;59039;52.108;19.942;2022-07-29T00:35:56;101135.91;;;15.91;62.73
60920;BME280;59039;52.108;19.942;2022-07-29T00:38:22;101135.78;;;15.91;62.90
60920;BME280;59039;52.108;19.942;2022-07-29T00:40:47;101135.06;;;15.90;64.23
60920;BME280;59039;52.108;19.942;2022-07-29T00:43:13;101138.38;;;15.87;64.32
60920;BME280;59039;52.108;19.942;2022-07-29T00:45:42;101138.23;;;15.80;64.63
60920;BME280;59039;52.108;19.942;2022-07-29T00:48:10;101138.52;;;15.73;66.08
60920;BME280;59039;52.108;19.942;2022-07-29T00:50:36;101143.39;;;15.65;65.58
60920;BME280;59039;52.108;19.942;2022-07-29T00:53:03;101142.29;;;15.60;65.25
60920;BME280;59039;52.108;19.942;2022-07-29T00:55:29;101146.66;;;15.56;65.60
60920;BME280;59039;52.108;19.942;2022-07-29T00:57:58;101149.01;;;15.55;64.97
60920;BME280;59039;52.108;19.942;2022-07-29T01:00:25;101143.48;;;15.52;66.47
60920;BME280;59039;52.108;19.942;2022-07-29T01:02:51;101144.55;;;15.48;66.33
60920;BME280;59039;52.108;19.942;2022-07-29T01:05:26;101141.42;;;15.44;65.89
60920;BME280;59039;52.108;19.942;2022-07-29T01:07:53;101140.30;;;15.41;67.25
60920;BME280;59039;52.108;19.942;2022-07-29T01:10:20;101135.99;;;15.37;66.68
60920;BME280;59039;52.108;19.942;2022-07-29T01:12:47;101136.36;;;15.34;66.71
60920;BME280;59039;52.108;19.942;2022-07-29T01:15:14;101132.52;;;15.31;66.86
60920;BME280;59039;52.108;19.942;2022-07-29T01:17:47;101133.14;;;15.29;66.93
60920;BME280;59039;52.108;19.942;2022-07-29T01:20:24;101131.02;;;15.26;66.76
60920;BME280;59039;52.108;19.942;2022-07-29T01:26:22;101135.19;;;15.24;66.60
60920;BME280;59039;52.108;19.942;2022-07-29T01:32:13;101131.34;;;15.23;66.51
60920;BME280;59039;52.108;19.942;2022-07-29T01:37:28;101129.61;;;15.26;67.23
60920;BME280;59039;52.108;19.942;2022-07-29T01:39:57;101126.59;;;15.23;67.77
60920;BME280;59039;52.108;19.942;2022-07-29T01:42:34;101134.36;;;15.22;66.79
60920;BME280;59039;52.108;19.942;2022-07-29T01:45:12;101134.23;;;15.22;67.46
60920;BME280;59039;52.108;19.942;2022-07-29T01:47:44;101132.90;;;15.20;67.83
60920;BME280;59039;52.108;19.942;2022-07-29T01:50:12;101137.22;;;15.18;67.24
60920;BME280;59039;52.108;19.942;2022-07-29T01:52:54;101138.02;;;15.15;67.87
60920;BME280;59039;52.108;19.942;2022-07-29T01:55:27;101138.31;;;15.15;66.21
60920;BME280;59039;52.108;19.942;2022-07-29T01:57:55;101136.09;;;15.15;66.65
60920;BME280;59039;52.108;19.942;2022-07-29T02:00:22;101129.45;;;15.14;66.12
60920;BME280;59039;52.108;19.942;2022-07-29T02:02:49;101128.77;;;15.13;67.36
60920;BME280;59039;52.108;19.942;2022-07-29T02:05:17;101126.60;;;15.13;68.22
60920;BME280;59039;52.108;19.942;2022-07-29T02:07:44;101125.30;;;15.12;67.57
60920;BME280;59039;52.108;19.942;2022-07-29T02:10:12;101128.27;;;15.11;67.86
60920;BME280;59039;52.108;19.942;2022-07-29T02:12:39;101134.20;;;15.10;68.10
60920;BME280;59039;52.108;19.942;2022-07-29T02:15:06;101135.48;;;15.11;67.30
60920;BME280;59039;52.108;19.942;2022-07-29T02:17:37;101141.48;;;15.11;67.14
60920;BME280;59039;52.108;19.942;2022-07-29T02:20:04;101139.98;;;15.08;66.96
60920;BME280;59039;52.108;19.942;2022-07-29T02:22:31;101136.45;;;15.03;69.32
60920;BME280;59039;52.108;19.942;2022-07-29T02:25:01;101138.73;;;14.94;68.85
60920;BME280;59039;52.108;19.942;2022-07-29T02:27:28;101138.98;;;14.88;67.22
60920;BME280;59039;52.108;19.942;2022-07-29T02:29:57;101135.31;;;14.85;68.74
60920;BME280;59039;52.108;19.942;2022-07-29T02:32:44;101132.30;;;14.80;69.19
60920;BME280;59039;52.108;19.942;2022-07-29T02:35:13;101132.96;;;14.73;70.23
60920;BME280;59039;52.108;19.942;2022-07-29T02:37:40;101139.27;;;14.63;68.95
60920;BME280;59039;52.108;19.942;2022-07-29T02:40:09;101135.98;;;14.58;69.15
60920;BME280;59039;52.108;19.942;2022-07-29T02:42:36;101134.88;;;14.53;69.86
60920;BME280;59039;52.108;19.942;2022-07-29T02:45:08;101137.85;;;14.49;69.50
60920;BME280;59039;52.108;19.942;2022-07-29T02:47:40;101136.37;;;14.46;69.19
60920;BME280;59039;52.108;19.942;2022-07-29T02:50:09;101127.46;;;14.44;69.03
60920;BME280;59039;52.108;19.942;2022-07-29T02:52:56;101127.51;;;14.40;68.33
60920;BME280;59039;52.108;19.942;2022-07-29T02:58:02;101116.11;;;14.32;71.42
60920;BME280;59039;52.108;19.942;2022-07-29T03:00:30;101117.72;;;14.24;69.48
60920;BME280;59039;52.108;19.942;2022-07-29T03:02:58;101120.06;;;14.22;69.34
60920;BME280;59039;52.108;19.942;2022-07-29T03:05:27;101119.77;;;14.19;70.51
60920;BME280;59039;52.108;19.942;2022-07-29T03:08:00;101121.12;;;14.17;69.17
60920;BME280;59039;52.108;19.942;2022-07-29T03:10:27;101123.91;;;14.15;70.57
60920;BME280;59039;52.108;19.942;2022-07-29T03:12:54;101128.67;;;14.11;70.59
60920;BME280;59039;52.108;19.942;2022-07-29T03:15:21;101130.88;;;14.08;71.03
60920;BME280;59039;52.108;19.942;2022-07-29T03:17:47;101127.06;;;14.06;70.72
60920;BME280;59039;52.108;19.942;2022-07-29T03:20:13;101125.66;;;14.02;71.97
60920;BME280;59039;52.108;19.942;2022-07-29T03:22:47;101130.91;;;13.95;71.01
60920;BME280;59039;52.108;19.942;2022-07-29T03:25:17;101131.02;;;13.91;70.77
60920;BME280;59039;52.108;19.942;2022-07-29T03:27:46;101134.45;;;13.87;70.71
60920;BME280;59039;52.108;19.942;2022-07-29T03:30:15;101131.12;;;13.86;71.59
60920;BME280;59039;52.108;19.942;2022-07-29T03:32:41;101131.27;;;13.83;71.59
60920;BME280;59039;52.108;19.942;2022-07-29T03:35:07;101138.73;;;13.83;71.19
60920;BME280;59039;52.108;19.942;2022-07-29T03:37:35;101141.42;;;13.83;71.35
60920;BME280;59039;52.108;19.942;2022-07-29T03:40:03;101141.30;;;13.83;71.85
60920;BME280;59039;52.108;19.942;2022-07-29T03:42:36;101143.73;;;13.84;70.88
60920;BME280;59039;52.108;19.942;2022-07-29T03:45:06;101146.79;;;13.86;71.36
60920;BME280;59039;52.108;19.942;2022-07-29T03:47:34;101145.98;;;13.90;71.16
60920;BME280;59039;52.108;19.942;2022-07-29T03:50:05;101145.23;;;13.96;71.65
60920;BME280;59039;52.108;19.942;2022-07-29T03:52:32;101145.74;;;14.01;71.83
60920;BME280;59039;52.108;19.942;2022-07-29T03:54:58;101141.25;;;14.08;71.72
60920;BME280;59039;52.108;19.942;2022-07-29T03:57:25;101143.41;;;14.13;72.66
60920;BME280;59039;52.108;19.942;2022-07-29T03:59:52;101142.92;;;14.18;72.02
60920;BME280;59039;52.108;19.942;2022-07-29T04:02:18;101133.36;;;14.24;72.27
60920;BME280;59039;52.108;19.942;2022-07-29T04:04:45;101136.55;;;14.30;72.31
60920;BME280;59039;52.108;19.942;2022-07-29T04:07:14;101138.73;;;14.35;72.10
60920;BME280;59039;52.108;19.942;2022-07-29T04:09:41;101139.20;;;14.41;71.78
60920;BME280;59039;52.108;19.942;2022-07-29T04:12:06;101138.63;;;14.50;71.94
60920;BME280;59039;52.108;19.942;2022-07-29T04:14:33;101139.27;;;14.60;71.88
60920;BME280;59039;52.108;19.942;2022-07-29T04:17:00;101139.42;;;14.69;71.69
60920;BME280;59039;52.108;19.942;2022-07-29T04:19:25;101140.48;;;14.79;71.37
60920;BME280;59039;52.108;19.942;2022-07-29T04:21:50;101145.25;;;14.91;71.00
60920;BME280;59039;52.108;19.942;2022-07-29T04:24:16;101151.35;;;15.02;70.69
60920;BME280;59039;52.108;19.942;2022-07-29T04:26:41;101148.40;;;15.12;70.61
60920;BME280;59039;52.108;19.942;2022-07-29T04:29:06;101148.29;;;15.20;70.93
60920;BME280;59039;52.108;19.942;2022-07-29T04:31:32;101146.60;;;15.27;70.99
60920;BME280;59039;52.108;19.942;2022-07-29T04:33:57;101147.11;;;15.36;70.73
60920;BME280;59039;52.108;19.942;2022-07-29T04:36:23;101149.05;;;15.46;70.31
60920;BME280;59039;52.108;19.942;2022-07-29T04:38:48;101154.37;;;15.58;70.56
60920;BME280;59039;52.108;19.942;2022-07-29T04:41:13;101153.77;;;15.68;70.31
60920;BME280;59039;52.108;19.942;2022-07-29T04:43:38;101154.39;;;15.78;70.30
60920;BME280;59039;52.108;19.942;2022-07-29T04:46:06;101156.30;;;15.88;70.04
60920;BME280;59039;52.108;19.942;2022-07-29T04:48:31;101158.66;;;16.00;70.24
60920;BME280;59039;52.108;19.942;2022-07-29T04:50:57;101163.15;;;16.05;70.02
60920;BME280;59039;52.108;19.942;2022-07-29T04:53:22;101156.05;;;16.09;69.98
60920;BME280;59039;52.108;19.942;2022-07-29T04:55:48;101155.78;;;16.13;69.90
60920;BME280;59039;52.108;19.942;2022-07-29T04:58:13;101157.34;;;16.20;69.74
60920;BME280;59039;52.108;19.942;2022-07-29T05:00:39;101155.06;;;16.29;69.50
60920;BME280;59039;52.108;19.942;2022-07-29T05:03:05;101148.94;;;16.39;69.44
60920;BME280;59039;52.108;19.942;2022-07-29T05:05:30;101152.02;;;16.47;69.39
60920;BME280;59039;52.108;19.942;2022-07-29T05:07:55;101154.07;;;16.57;69.26
60920;BME280;59039;52.108;19.942;2022-07-29T05:10:21;101157.84;;;16.67;69.17
60920;BME280;59039;52.108;19.942;2022-07-29T05:12:48;101157.38;;;16.74;69.50
60920;BME280;59039;52.108;19.942;2022-07-29T05:15:16;101152.71;;;16.81;69.26
60920;BME280;59039;52.108;19.942;2022-07-29T05:17:41;101149.19;;;16.91;69.12
60920;BME280;59039;52.108;19.942;2022-07-29T05:20:07;101147.98;;;17.01;68.90
60920;BME280;59039;52.108;19.942;2022-07-29T05:22:33;101152.33;;;17.13;69.23
60920;BME280;59039;52.108;19.942;2022-07-29T05:24:59;101155.45;;;17.26;69.15
60920;BME280;59039;52.108;19.942;2022-07-29T05:27:24;101158.56;;;17.38;68.94
60920;BME280;59039;52.108;19.942;2022-07-29T05:29:49;101153.81;;;17.50;68.92
60920;BME280;59039;52.108;19.942;2022-07-29T05:32:15;101153.61;;;17.64;68.53
60920;BME280;59039;52.108;19.942;2022-07-29T05:34:41;101153.96;;;17.78;68.44
60920;BME280;59039;52.108;19.942;2022-07-29T05:37:07;101154.27;;;17.93;68.25
60920;BME280;59039;52.108;19.942;2022-07-29T05:39:32;101152.75;;;18.05;68.06
60920;BME280;59039;52.108;19.942;2022-07-29T05:41:58;101152.48;;;18.15;67.25
60920;BME280;59039;52.108;19.942;2022-07-29T05:44:25;101149.25;;;18.22;67.28
60920;BME280;59039;52.108;19.942;2022-07-29T05:46:51;101152.88;;;18.31;67.17
60920;BME280;59039;52.108;19.942;2022-07-29T05:49:16;101148.16;;;18.41;66.98
60920;BME280;59039;52.108;19.942;2022-07-29T05:51:42;101142.04;;;18.51;66.87
60920;BME280;59039;52.108;19.942;2022-07-29T05:54:07;101145.73;;;18.61;66.81
60920;BME280;59039;52.108;19.942;2022-07-29T05:56:32;101149.86;;;18.69;66.03
60920;BME280;59039;52.108;19.942;2022-07-29T05:58:58;101142.34;;;18.75;65.84
60920;BME280;59039;52.108;19.942;2022-07-29T06:01:23;101141.61;;;18.86;66.17
60920;BME280;59039;52.108;19.942;2022-07-29T06:03:49;101143.77;;;18.98;65.93
60920;BME280;59039;52.108;19.942;2022-07-29T06:06:14;101143.81;;;19.09;65.75
60920;BME280;59039;52.108;19.942;2022-07-29T06:08:40;101140.73;;;19.22;65.68
60920;BME280;59039;52.108;19.942;2022-07-29T06:11:05;101141.66;;;19.35;64.84
60920;BME280;59039;52.108;19.942;2022-07-29T06:13:31;101141.13;;;19.49;65.30
60920;BME280;59039;52.108;19.942;2022-07-29T06:15:56;101138.86;;;19.64;64.67
60920;BME280;59039;52.108;19.942;2022-07-29T06:18:22;101136.66;;;19.79;65.22
60920;BME280;59039;52.108;19.942;2022-07-29T06:20:47;101141.51;;;19.94;64.44
60920;BME280;59039;52.108;19.942;2022-07-29T06:23:12;101139.23;;;20.10;63.92
60920;BME280;59039;52.108;19.942;2022-07-29T06:25:40;101139.16;;;20.30;63.82
60920;BME280;59039;52.108;19.942;2022-07-29T06:28:08;101143.63;;;20.48;63.59
60920;BME280;59039;52.108;19.942;2022-07-29T06:30:33;101143.96;;;20.65;62.45
60920;BME280;59039;52.108;19.942;2022-07-29T06:32:59;101146.83;;;20.85;63.09
60920;BME280;59039;52.108;19.942;2022-07-29T06:35:24;101146.47;;;21.06;61.80
60920;BME280;59039;52.108;19.942;2022-07-29T06:37:49;101143.23;;;21.29;60.10
60920;BME280;59039;52.108;19.942;2022-07-29T06:40:14;101149.54;;;21.55;60.64
60920;BME280;59039;52.108;19.942;2022-07-29T06:42:43;101150.51;;;21.83;60.19
60920;BME280;59039;52.108;19.942;2022-07-29T06:45:10;101150.70;;;22.12;61.20
60920;BME280;59039;52.108;19.942;2022-07-29T06:47:36;101148.59;;;22.36;59.48
60920;BME280;59039;52.108;19.942;2022-07-29T06:50:01;101145.59;;;22.63;58.98
60920;BME280;59039;52.108;19.942;2022-07-29T06:52:26;101141.59;;;22.90;58.35
60920;BME280;59039;52.108;19.942;2022-07-29T06:54:52;101137.35;;;23.09;57.43
60920;BME280;59039;52.108;19.942;2022-07-29T06:57:17;101137.40;;;23.28;54.60
60920;BME280;59039;52.108;19.942;2022-07-29T06:59:42;101138.97;;;23.50;55.68
60920;BME280;59039;52.108;19.942;2022-07-29T07:02:07;101138.84;;;23.73;55.61
60920;BME280;59039;52.108;19.942;2022-07-29T07:04:33;101137.75;;;23.90;53.59
60920;BME280;59039;52.108;19.942;2022-07-29T07:06:58;101139.21;;;24.09;54.24
60920;BME280;59039;52.108;19.942;2022-07-29T07:09:23;101135.48;;;24.25;53.72
60920;BME280;59039;52.108;19.942;2022-07-29T07:11:49;101126.14;;;24.35;53.01
60920;BME280;59039;52.108;19.942;2022-07-29T07:14:14;101127.95;;;24.50;51.02
60920;BME280;59039;52.108;19.942;2022-07-29T07:16:39;101129.90;;;24.68;51.75
60920;BME280;59039;52.108;19.942;2022-07-29T07:19:04;101132.45;;;24.76;49.35
60920;BME280;59039;52.108;19.942;2022-07-29T07:21:30;101133.36;;;24.92;50.49
60920;BME280;59039;52.108;19.942;2022-07-29T07:23:55;101127.64;;;25.06;48.99
60920;BME280;59039;52.108;19.942;2022-07-29T07:26:20;101129.45;;;25.24;49.67
60920;BME280;59039;52.108;19.942;2022-07-29T07:28:45;101129.73;;;25.39;49.59
60920;BME280;59039;52.108;19.942;2022-07-29T07:31:11;101125.95;;;25.46;47.70
60920;BME280;59039;52.108;19.942;2022-07-29T07:33:36;101130.95;;;25.62;49.18
60920;BME280;59039;52.108;19.942;2022-07-29T07:36:02;101125.25;;;25.73;47.55
60920;BME280;59039;52.108;19.942;2022-07-29T07:38:27;101125.27;;;25.88;48.72
60920;BME280;59039;52.108;19.942;2022-07-29T07:40:53;101126.39;;;25.97;47.57
60920;BME280;59039;52.108;19.942;2022-07-29T07:43:19;101125.30;;;26.09;46.71
60920;BME280;59039;52.108;19.942;2022-07-29T07:45:44;101123.87;;;26.19;45.71
60920;BME280;59039;52.108;19.942;2022-07-29T07:48:09;101126.00;;;26.27;45.12
60920;BME280;59039;52.108;19.942;2022-07-29T07:50:35;101127.25;;;26.33;44.90
60920;BME280;59039;52.108;19.942;2022-07-29T07:53:03;101129.03;;;26.44;45.62
60920;BME280;59039;52.108;19.942;2022-07-29T07:55:28;101125.89;;;26.57;45.13
60920;BME280;59039;52.108;19.942;2022-07-29T07:57:54;101124.73;;;26.71;45.42
60920;BME280;59039;52.108;19.942;2022-07-29T08:00:20;101119.56;;;26.79;44.15
60920;BME280;59039;52.108;19.942;2022-07-29T08:02:45;101122.28;;;26.86;43.13
60920;BME280;59039;52.108;19.942;2022-07-29T08:05:11;101123.45;;;26.94;43.50
60920;BME280;59039;52.108;19.942;2022-07-29T08:07:37;101119.17;;;27.06;44.06
60920;BME280;59039;52.108;19.942;2022-07-29T08:10:03;101119.66;;;27.14;43.20
60920;BME280;59039;52.108;19.942;2022-07-29T08:12:28;101124.92;;;27.26;43.02
60920;BME280;59039;52.108;19.942;2022-07-29T08:14:53;101122.02;;;27.37;42.26
60920;BME280;59039;52.108;19.942;2022-07-29T08:17:19;101123.63;;;27.46;41.68
60920;BME280;59039;52.108;19.942;2022-07-29T08:19:44;101121.94;;;27.45;42.00
60920;BME280;59039;52.108;19.942;2022-07-29T08:22:09;101117.66;;;27.43;41.78
60920;BME280;59039;52.108;19.942;2022-07-29T08:24:35;101118.64;;;27.44;41.62
60920;BME280;59039;52.108;19.942;2022-07-29T08:27:00;101113.86;;;27.41;41.86
60920;BME280;59039;52.108;19.942;2022-07-29T08:29:25;101112.77;;;27.36;41.43
60920;BME280;59039;52.108;19.942;2022-07-29T08:31:51;101113.50;;;27.30;41.54
60920;BME280;59039;52.108;19.942;2022-07-29T08:34:16;101109.66;;;27.23;40.66
60920;BME280;59039;52.108;19.942;2022-07-29T08:36:41;101110.30;;;27.14;40.57
60920;BME280;59039;52.108;19.942;2022-07-29T08:39:06;101105.27;;;27.03;41.17
60920;BME280;59039;52.108;19.942;2022-07-29T08:41:32;101110.11;;;26.89;41.03
60920;BME280;59039;52.108;19.942;2022-07-29T08:43:57;101108.27;;;26.72;40.74
60920;BME280;59039;52.108;19.942;2022-07-29T08:46:23;101115.07;;;26.51;41.16
60920;BME280;59039;52.108;19.942;2022-07-29T08:48:48;101116.02;;;26.29;41.30
60920;BME280;59039;52.108;19.942;2022-07-29T08:51:15;101114.95;;;26.08;41.31
60920;BME280;59039;52.108;19.942;2022-07-29T08:53:42;101118.20;;;25.78;40.81
60920;BME280;59039;52.108;19.942;2022-07-29T08:56:14;101112.00;;;25.46;41.58
60920;BME280;59039;52.108;19.942;2022-07-29T08:58:40;101105.75;;;25.22;42.60
60920;BME280;59039;52.108;19.942;2022-07-29T09:01:10;101108.79;;;25.10;42.99
60920;BME280;59039;52.108;19.942;2022-07-29T09:03:36;101112.76;;;24.95;42.79
60920;BME280;59039;52.108;19.942;2022-07-29T09:06:03;101119.68;;;24.81;42.76
60920;BME280;59039;52.108;19.942;2022-07-29T09:08:32;101117.80;;;24.67;42.91
60920;BME280;59039;52.108;19.942;2022-07-29T09:10:58;101115.70;;;24.55;42.32
60920;BME280;59039;52.108;19.942;2022-07-29T09:13:32;101111.86;;;24.42;42.55
60920;BME280;59039;52.108;19.942;2022-07-29T09:15:58;101107.17;;;24.30;43.00
60920;BME280;59039;52.108;19.942;2022-07-29T09:18:41;101111.48;;;24.24;43.19
60920;BME280;59039;52.108;19.942;2022-07-29T09:21:09;101113.31;;;24.15;43.88
60920;BME280;59039;52.108;19.942;2022-07-29T09:23:34;101110.55;;;24.07;43.91
60920;BME280;59039;52.108;19.942;2022-07-29T09:26:05;101103.56;;;23.97;43.91
60920;BME280;59039;52.108;19.942;2022-07-29T09:28:30;101101.90;;;23.87;44.30
60920;BME280;59039;52.108;19.942;2022-07-29T09:30:57;101102.65;;;23.78;44.13
60920;BME280;59039;52.108;19.942;2022-07-29T09:33:23;101098.56;;;23.72;44.32
60920;BME280;59039;52.108;19.942;2022-07-29T09:36:06;101103.71;;;23.68;44.31
60920;BME280;59039;52.108;19.942;2022-07-29T09:38:33;101109.02;;;23.59;43.74
60920;BME280;59039;52.108;19.942;2022-07-29T09:41:00;101105.49;;;23.53;44.43
60920;BME280;59039;52.108;19.942;2022-07-29T09:43:26;101107.56;;;23.49;44.58
60920;BME280;59039;52.108;19.942;2022-07-29T09:45:52;101098.47;;;23.43;44.82
60920;BME280;59039;52.108;19.942;2022-07-29T09:48:19;101098.04;;;23.39;45.12
60920;BME280;59039;52.108;19.942;2022-07-29T09:50:46;101103.27;;;23.34;44.79
60920;BME280;59039;52.108;19.942;2022-07-29T09:53:11;101097.66;;;23.29;45.04
60920;BME280;59039;52.108;19.942;2022-07-29T09:55:55;101102.24;;;23.27;44.37
60920;BME280;59039;52.108;19.942;2022-07-29T09:58:21;101100.66;;;23.25;44.73
60920;BME280;59039;52.108;19.942;2022-07-29T10:00:48;101098.08;;;23.24;44.98
60920;BME280;59039;52.108;19.942;2022-07-29T10:03:15;101097.60;;;23.25;44.92
60920;BME280;59039;52.108;19.942;2022-07-29T10:05:41;101093.98;;;23.24;43.87
60920;BME280;59039;52.108;19.942;2022-07-29T10:08:06;101093.73;;;23.22;43.70
60920;BME280;59039;52.108;19.942;2022-07-29T10:10:34;101096.61;;;23.20;44.03
60920;BME280;59039;52.108;19.942;2022-07-29T10:13:04;101087.05;;;23.18;44.22
60920;BME280;59039;52.108;19.942;2022-07-29T10:15:32;101085.84;;;23.17;44.45
60920;BME280;59039;52.108;19.942;2022-07-29T10:17:59;101081.90;;;23.17;44.71
60920;BME280;59039;52.108;19.942;2022-07-29T10:20:28;101075.91;;;23.15;44.65
60920;BME280;59039;52.108;19.942;2022-07-29T10:22:54;101078.36;;;23.16;45.45
60920;BME280;59039;52.108;19.942;2022-07-29T10:25:20;101075.38;;;23.17;45.79
60920;BME280;59039;52.108;19.942;2022-07-29T10:27:46;101077.84;;;23.20;45.52
60920;BME280;59039;52.108;19.942;2022-07-29T10:30:14;101074.23;;;23.19;44.93
60920;BME280;59039;52.108;19.942;2022-07-29T10:43:35;101060.10;;;23.19;45.42
60920;BME280;59039;52.108;19.942;2022-07-29T10:46:02;101060.30;;;23.21;44.92
60920;BME280;59039;52.108;19.942;2022-07-29T10:48:28;101056.78;;;23.17;43.70
60920;BME280;59039;52.108;19.942;2022-07-29T10:51:01;101057.34;;;23.14;44.35
60920;BME280;59039;52.108;19.942;2022-07-29T10:53:51;101053.55;;;23.13;44.69
60920;BME280;59039;52.108;19.942;2022-07-29T10:56:28;101052.80;;;23.11;45.52
60920;BME280;59039;52.108;19.942;2022-07-29T11:01:44;101045.13;;;23.15;45.92
60920;BME280;59039;52.108;19.942;2022-07-29T11:04:09;101043.38;;;23.18;46.32
60920;BME280;59039;52.108;19.942;2022-07-29T11:09:25;101046.71;;;23.19;45.63
60920;BME280;59039;52.108;19.942;2022-07-29T11:11:50;101038.10;;;23.21;45.58
60920;BME280;59039;52.108;19.942;2022-07-29T11:14:17;101037.67;;;23.22;45.32
60920;BME280;59039;52.108;19.942;2022-07-29T11:17:00;101039.09;;;23.25;45.75
60920;BME280;59039;52.108;19.942;2022-07-29T11:19:25;101032.00;;;23.28;45.96
60920;BME280;59039;52.108;19.942;2022-07-29T11:21:51;101032.66;;;23.30;45.40
60920;BME280;59039;52.108;19.942;2022-07-29T11:24:23;101031.09;;;23.31;45.00
60920;BME280;59039;52.108;19.942;2022-07-29T11:27:11;101032.46;;;23.29;44.94
60920;BME280;59039;52.108;19.942;2022-07-29T11:32:14;101038.25;;;23.26;45.12
60920;BME280;59039;52.108;19.942;2022-07-29T11:34:40;101034.11;;;23.25;44.64
60920;BME280;59039;52.108;19.942;2022-07-29T11:39:36;101027.06;;;23.27;45.37
60920;BME280;59039;52.108;19.942;2022-07-29T11:47:29;101027.19;;;23.22;44.31
60920;BME280;59039;52.108;19.942;2022-07-29T11:49:58;101025.39;;;23.22;44.79
60920;BME280;59039;52.108;19.942;2022-07-29T11:52:33;101033.29;;;23.22;44.67
60920;BME280;59039;52.108;19.942;2022-07-29T11:55:01;101034.96;;;23.21;44.03
60920;BME280;59039;52.108;19.942;2022-07-29T11:57:27;101032.55;;;23.21;44.45
60920;BME280;59039;52.108;19.942;2022-07-29T11:59:53;101032.88;;;23.21;44.87
60920;BME280;59039;52.108;19.942;2022-07-29T12:02:20;101032.41;;;23.24;44.65
60920;BME280;59039;52.108;19.942;2022-07-29T12:04:56;101025.97;;;23.27;44.77
60920;BME280;59039;52.108;19.942;2022-07-29T12:07:28;101025.06;;;23.28;45.19
60920;BME280;59039;52.108;19.942;2022-07-29T12:12:27;101019.88;;;23.29;43.64
60920;BME280;59039;52.108;19.942;2022-07-29T12:14:52;101012.06;;;23.29;43.60
60920;BME280;59039;52.108;19.942;2022-07-29T12:17:32;101012.34;;;23.31;44.36
60920;BME280;59039;52.108;19.942;2022-07-29T12:19:59;101008.38;;;23.32;44.38
60920;BME280;59039;52.108;19.942;2022-07-29T12:22:33;101012.02;;;23.30;43.76
60920;BME280;59039;52.108;19.942;2022-07-29T12:25:10;101015.83;;;23.29;44.18
60920;BME280;59039;52.108;19.942;2022-07-29T12:27:38;101011.98;;;23.28;44.22
60920;BME280;59039;52.108;19.942;2022-07-29T12:30:09;101005.67;;;23.27;44.41
60920;BME280;59039;52.108;19.942;2022-07-29T12:32:37;101001.96;;;23.29;44.63
60920;BME280;59039;52.108;19.942;2022-07-29T12:35:10;100997.67;;;23.30;44.44
60920;BME280;59039;52.108;19.942;2022-07-29T12:37:38;101000.70;;;23.32;44.74
60920;BME280;59039;52.108;19.942;2022-07-29T12:40:05;100996.63;;;23.33;43.80
60920;BME280;59039;52.108;19.942;2022-07-29T12:42:31;100994.86;;;23.35;44.58
60920;BME280;59039;52.108;19.942;2022-07-29T12:44:57;100991.95;;;23.38;44.62
60920;BME280;59039;52.108;19.942;2022-07-29T12:47:23;100993.90;;;23.40;44.42
60920;BME280;59039;52.108;19.942;2022-07-29T12:49:49;100991.60;;;23.39;44.46
60920;BME280;59039;52.108;19.942;2022-07-29T12:52:30;100990.27;;;23.39;44.59
60920;BME280;59039;52.108;19.942;2022-07-29T12:54:56;100993.85;;;23.40;44.94
60920;BME280;59039;52.108;19.942;2022-07-29T12:57:22;100993.12;;;23.40;44.77
60920;BME280;59039;52.108;19.942;2022-07-29T13:00:07;100990.52;;;23.40;44.93
60920;BME280;59039;52.108;19.942;2022-07-29T13:02:33;100990.45;;;23.39;44.66
60920;BME280;59039;52.108;19.942;2022-07-29T13:05:00;100983.75;;;23.40;44.87
60920;BME280;59039;52.108;19.942;2022-07-29T13:07:28;100981.14;;;23.40;44.64
60920;BME280;59039;52.108;19.942;2022-07-29T13:09:54;100973.44;;;23.40;45.00
60920;BME280;59039;52.108;19.942;2022-07-29T13:12:34;100978.56;;;23.41;44.98
60920;BME280;59039;52.108;19.942;2022-07-29T13:14:59;100972.20;;;23.41;45.08
60920;BME280;59039;52.108;19.942;2022-07-29T13:17:27;100974.29;;;23.44;45.22
60920;BME280;59039;52.108;19.942;2022-07-29T13:20:06;100969.05;;;23.45;45.07
60920;BME280;59039;52.108;19.942;2022-07-29T13:22:41;100964.34;;;23.47;44.87
60920;BME280;59039;52.108;19.942;2022-07-29T13:25:08;100964.67;;;23.49;45.09